Time;durP1;ratioP1;P1;durP2;ratioP2;P2;SDS_P1;SDS_P2;PMS_P1;PMS_P2;Temp;Humidity;BMP_temperature;BMP_pressure;BME280_temperature;BME280_humidity;BME280_pressure;Samples;Min_cycle;Max_cycle;Signal;HPM_P1;HPM_P2
2021/07/24 00:02:03;;;;;;;24.77;16.58;;;;;;;15.91;89.31;100879.78;4943387;28;20590;-87
2021/07/24 00:04:28;;;;;;;24.60;15.20;;;;;;;15.87;89.47;100884.75;4943061;28;20082;-84
2021/07/24 00:06:54;;;;;;;24.83;15.27;;;;;;;15.88;89.31;100881.03;4943197;28;20479;-87
2021/07/24 00:09:19;;;;;;;23.42;15.02;;;;;;;15.82;89.47;100873.69;4940163;28;20065;-87
2021/07/24 00:11:45;;;;;;;22.88;15.00;;;;;;;15.81;89.65;100871.19;4941458;28;20661;-85
2021/07/24 00:14:10;;;;;;;23.25;15.98;;;;;;;15.77;89.66;100866.19;4943738;28;20134;-87
2021/07/24 00:16:35;;;;;;;24.67;15.75;;;;;;;15.75;89.93;100870.94;4942092;28;20066;-84
2021/07/24 00:19:01;;;;;;;24.65;15.50;;;;;;;15.65;90.78;100864.16;4943021;28;20043;-86
2021/07/24 00:21:26;;;;;;;24.10;16.08;;;;;;;15.67;90.34;100857.53;4941528;28;20055;-86
2021/07/24 00:23:52;;;;;;;27.27;16.48;;;;;;;15.66;90.53;100852.31;4931028;29;20051;-84
2021/07/24 00:26:17;;;;;;;24.85;14.70;;;;;;;15.59;91.07;100846.84;4943267;28;20492;-85
2021/07/24 00:28:42;;;;;;;27.13;15.50;;;;;;;15.63;90.80;100855.41;4941960;28;20062;-84
2021/07/24 00:31:08;;;;;;;24.02;15.40;;;;;;;15.64;90.78;100851.69;4940000;28;20683;-84
2021/07/24 00:33:34;;;;;;;26.60;16.33;;;;;;;15.60;90.92;100850.41;4939734;28;20074;-84
2021/07/24 00:35:59;;;;;;;28.13;16.23;;;;;;;15.56;90.92;100850.81;4943326;28;20106;-89
2021/07/24 00:38:25;;;;;;;23.38;15.45;;;;;;;15.53;91.40;100843.03;4942803;28;20380;-84
2021/07/24 00:41:03;;;;;;;26.00;16.75;;;;;;;15.53;91.55;100834.94;4941001;28;20055;-83
2021/07/24 00:43:30;;;;;;;24.75;16.17;;;;;;;15.57;91.22;100836.22;4938587;28;20074;-83
2021/07/24 00:45:56;;;;;;;23.25;15.75;;;;;;;15.53;91.47;100829.53;4943605;28;20570;-84
2021/07/24 00:48:23;;;;;;;25.10;16.25;;;;;;;15.50;91.52;100829.91;4942398;28;20130;-84
2021/07/24 00:50:52;;;;;;;26.35;16.05;;;;;;;15.43;92.02;100833.63;4943022;28;20063;-84
2021/07/24 00:53:22;;;;;;;27.15;15.88;;;;;;;15.44;92.23;100828.00;4942083;28;20065;-85
2021/07/24 00:55:49;;;;;;;26.45;15.95;;;;;;;15.47;91.93;100829.47;4941746;28;20772;-84
2021/07/24 00:58:26;;;;;;;23.92;15.95;;;;;;;15.38;92.27;100823.38;4942227;28;20051;-84
2021/07/24 01:00:52;;;;;;;26.20;16.50;;;;;;;15.43;91.90;100823.63;4942772;28;20066;-85
2021/07/24 01:03:17;;;;;;;25.80;15.57;;;;;;;15.35;92.43;100821.91;4941013;28;20130;-88
2021/07/24 01:05:45;;;;;;;24.15;14.93;;;;;;;15.34;92.45;100819.41;4941521;28;20071;-84
2021/07/24 01:08:11;;;;;;;24.20;16.20;;;;;;;15.30;92.64;100813.53;4940851;29;20458;-85
2021/07/24 01:10:37;;;;;;;24.42;16.08;;;;;;;15.29;92.92;100811.88;4942637;28;20059;-85
2021/07/24 01:13:03;;;;;;;24.65;15.75;;;;;;;15.30;92.69;100810.00;4941742;28;20047;-84
2021/07/24 01:15:29;;;;;;;27.70;16.00;;;;;;;15.25;93.04;100816.00;4941527;28;20762;-88
2021/07/24 01:17:54;;;;;;;25.15;15.82;;;;;;;15.26;92.97;100808.72;4942187;28;20055;-85
2021/07/24 01:20:21;;;;;;;27.55;16.75;;;;;;;15.24;93.04;100808.06;4940768;28;20541;-84
2021/07/24 01:22:47;;;;;;;28.45;16.88;;;;;;;15.23;93.08;100812.66;4942701;28;20047;-89
2021/07/24 01:25:12;;;;;;;24.35;15.57;;;;;;;15.20;93.23;100806.81;4942919;28;20398;-85
2021/07/24 01:27:42;;;;;;;26.27;16.23;;;;;;;15.20;93.07;100806.81;4937692;28;20042;-84
2021/07/24 01:30:08;;;;;;;24.50;15.95;;;;;;;15.15;93.15;100798.44;4942773;28;20048;-84
2021/07/24 01:32:33;;;;;;;27.02;16.73;;;;;;;15.17;92.96;100797.22;4941339;28;20055;-84
2021/07/24 01:34:59;;;;;;;26.05;15.57;;;;;;;15.16;93.34;100791.97;4940875;28;20139;-84
2021/07/24 01:37:25;;;;;;;25.27;16.02;;;;;;;15.16;93.03;100789.28;4945006;29;20078;-85
2021/07/24 01:39:50;;;;;;;25.00;15.52;;;;;;;15.13;93.26;100782.38;4944409;28;20140;-84
2021/07/24 01:42:17;;;;;;;25.15;14.95;;;;;;;15.11;93.79;100785.31;4944055;28;20134;-83
2021/07/24 01:44:43;;;;;;;24.27;15.13;;;;;;;15.08;93.71;100787.56;4945319;28;20168;-85
2021/07/24 01:47:08;;;;;;;26.13;15.98;;;;;;;15.04;93.78;100781.69;4946475;28;20078;-85
2021/07/24 01:52:48;;;;;;;24.27;15.43;;;;;;;15.03;93.96;100771.91;4944759;28;20054;-84
2021/07/24 01:55:22;;;;;;;24.52;15.07;;;;;;;15.01;94.44;100770.44;4913334;29;20562;-84
2021/07/24 01:57:49;;;;;;;25.90;14.05;;;;;;;14.99;94.52;100767.94;4941923;28;20047;-84
2021/07/24 02:00:17;;;;;;;23.42;15.43;;;;;;;15.04;93.92;100760.06;4945612;28;20057;-86
2021/07/24 02:02:46;;;;;;;23.27;15.05;;;;;;;15.04;93.62;100762.78;4945224;28;20059;-86
2021/07/24 02:05:27;;;;;;;22.77;15.30;;;;;;;14.98;94.65;100754.63;4943346;28;20054;-86
2021/07/24 02:07:53;;;;;;;26.00;15.68;;;;;;;14.88;94.98;100755.78;4943642;28;20042;-83
2021/07/24 02:10:19;;;;;;;25.52;15.10;;;;;;;14.85;95.61;100750.78;4945752;28;20383;-85
2021/07/24 02:12:44;;;;;;;27.77;15.93;;;;;;;14.89;95.24;100756.63;4944920;28;20082;-85
2021/07/24 02:15:10;;;;;;;28.02;15.63;;;;;;;14.87;95.45;100759.53;4943882;28;20065;-87
2021/07/24 02:17:37;;;;;;;23.88;14.98;;;;;;;14.88;95.39;100769.28;4942591;28;20052;-85
2021/07/24 02:20:04;;;;;;;26.98;15.93;;;;;;;14.87;95.23;100769.47;4945004;28;20043;-84
2021/07/24 02:22:30;;;;;;;23.77;14.93;;;;;;;14.86;95.46;100760.53;4944473;28;20499;-84
2021/07/24 02:24:55;;;;;;;24.10;13.95;;;;;;;14.82;95.21;100755.72;4944361;28;20157;-85
2021/07/24 02:27:22;;;;;;;23.45;14.75;;;;;;;14.81;95.58;100762.13;4943653;28;20131;-86
2021/07/24 02:29:47;;;;;;;27.10;15.40;;;;;;;14.76;95.53;100767.28;4944719;28;20058;-84
2021/07/24 02:32:13;;;;;;;26.13;15.85;;;;;;;14.76;95.57;100761.88;4944329;28;20439;-86
2021/07/24 02:34:38;;;;;;;25.13;15.68;;;;;;;14.72;96.02;100766.00;4945510;28;20398;-85
2021/07/24 02:37:04;;;;;;;24.10;14.85;;;;;;;14.70;96.05;100768.88;4944579;28;20090;-85
2021/07/24 02:39:29;;;;;;;25.67;15.85;;;;;;;14.70;95.52;100762.66;4941928;28;20121;-88
2021/07/24 02:41:55;;;;;;;26.70;15.18;;;;;;;14.69;95.85;100761.00;4944724;28;20539;-85
2021/07/24 02:44:20;;;;;;;24.85;15.57;;;;;;;14.69;95.68;100755.59;4944898;28;20052;-84
2021/07/24 02:46:45;;;;;;;27.85;15.98;;;;;;;14.64;96.62;100754.31;4945158;28;20050;-84
2021/07/24 02:49:12;;;;;;;24.50;15.15;;;;;;;14.69;96.31;100755.59;4944097;28;20051;-85
2021/07/24 02:51:37;;;;;;;30.00;16.23;;;;;;;14.65;96.11;100739.75;4943332;28;20047;-85
2021/07/24 02:54:03;;;;;;;26.40;14.50;;;;;;;14.66;96.21;100736.03;4943956;28;20062;-85
2021/07/24 02:56:29;;;;;;;27.17;15.82;;;;;;;14.60;96.34;100726.00;4942245;28;20098;-86
2021/07/24 02:58:54;;;;;;;26.27;15.32;;;;;;;14.63;96.38;100731.00;4945245;28;20051;-85
2021/07/24 03:01:19;;;;;;;25.40;14.95;;;;;;;14.62;96.08;100729.34;4943617;28;20577;-85
2021/07/24 03:03:45;;;;;;;25.67;15.68;;;;;;;14.58;96.34;100714.53;4941993;28;20134;-89
2021/07/24 03:06:10;;;;;;;25.95;16.10;;;;;;;14.61;96.16;100705.22;4944022;28;20047;-86
2021/07/24 03:08:35;;;;;;;27.88;16.77;;;;;;;14.60;96.25;100711.66;4943043;28;20055;-84
2021/07/24 03:11:01;;;;;;;27.95;15.93;;;;;;;14.58;96.59;100716.41;4946345;28;20062;-87
2021/07/24 03:13:26;;;;;;;23.27;16.08;;;;;;;14.56;96.74;100721.19;4947248;28;20051;-85
2021/07/24 03:15:52;;;;;;;26.55;15.77;;;;;;;14.53;97.13;100713.44;4944526;28;20079;-89
2021/07/24 03:18:18;;;;;;;23.90;15.60;;;;;;;14.54;96.19;100699.75;4937275;28;20047;-85
2021/07/24 03:20:43;;;;;;;25.02;15.00;;;;;;;14.53;96.60;100703.50;4944303;28;20059;-87
2021/07/24 03:23:09;;;;;;;24.88;15.23;;;;;;;14.47;96.92;100693.41;4944949;28;20047;-87
2021/07/24 03:25:34;;;;;;;32.63;16.48;;;;;;;14.44;97.56;100702.75;4945813;28;20088;-85
2021/07/24 03:28:00;;;;;;;27.48;15.75;;;;;;;14.43;97.31;100706.47;4944889;28;20043;-87
2021/07/24 03:30:25;;;;;;;27.15;15.95;;;;;;;14.38;97.95;100706.19;4944139;28;20066;-85
2021/07/24 03:32:50;;;;;;;28.77;16.08;;;;;;;14.37;98.29;100709.09;4944203;28;20059;-85
2021/07/24 03:35:16;;;;;;;26.13;15.60;;;;;;;14.39;98.17;100693.56;4945646;28;20047;-88
2021/07/24 03:37:41;;;;;;;28.65;16.63;;;;;;;14.41;97.76;100688.78;4943250;28;20058;-85
2021/07/24 03:40:07;;;;;;;28.73;16.08;;;;;;;14.39;97.72;100685.47;4943802;28;20106;-86
2021/07/24 03:42:32;;;;;;;29.05;16.58;;;;;;;14.39;97.51;100674.66;4943946;28;20655;-85
2021/07/24 03:44:58;;;;;;;26.83;16.05;;;;;;;14.37;97.62;100680.25;4943882;28;20543;-85
2021/07/24 03:47:23;;;;;;;26.05;15.50;;;;;;;14.35;98.08;100684.16;4943902;28;20051;-84
2021/07/24 03:49:49;;;;;;;25.30;15.60;;;;;;;14.35;97.87;100678.75;4941484;28;20055;-85
2021/07/24 03:52:14;;;;;;;28.52;15.63;;;;;;;14.33;98.26;100697.03;4943249;28;20058;-88
2021/07/24 03:54:39;;;;;;;27.17;15.10;;;;;;;14.31;98.66;100697.22;4941465;28;20055;-87
2021/07/24 03:57:05;;;;;;;29.45;16.58;;;;;;;14.34;98.20;100704.09;4938481;28;20058;-84
2021/07/24 03:59:30;;;;;;;27.15;15.73;;;;;;;14.35;98.25;100703.06;4943765;28;20387;-83
2021/07/24 04:01:58;;;;;;;26.73;15.88;;;;;;;14.37;97.25;100699.13;4941289;28;21266;-86
2021/07/24 04:04:23;;;;;;;28.70;16.15;;;;;;;14.38;97.80;100691.88;4943098;28;20051;-85
2021/07/24 04:06:50;;;;;;;28.83;16.48;;;;;;;14.37;97.37;100682.94;4941895;28;20505;-89
2021/07/24 04:09:16;;;;;;;26.65;15.73;;;;;;;14.38;97.79;100689.19;4942866;28;20175;-86
2021/07/24 04:11:42;;;;;;;24.60;14.65;;;;;;;14.34;98.45;100704.09;4942994;28;20394;-84
2021/07/24 04:14:07;;;;;;;25.00;15.18;;;;;;;14.35;98.75;100694.97;4943822;28;20051;-84
2021/07/24 04:16:33;;;;;;;26.20;14.98;;;;;;;14.36;98.62;100692.09;4942295;28;20537;-85
2021/07/24 04:19:00;;;;;;;27.17;15.68;;;;;;;14.37;98.16;100682.13;4942587;28;20098;-87
2021/07/24 04:21:25;;;;;;;25.08;14.75;;;;;;;14.38;98.87;100690.00;4942895;28;20582;-85
2021/07/24 04:23:53;;;;;;;24.23;14.70;;;;;;;14.44;98.59;100688.41;4942537;28;20083;-85
2021/07/24 04:26:19;;;;;;;25.58;15.63;;;;;;;14.47;98.41;100679.91;4944145;28;20050;-86
2021/07/24 04:28:45;;;;;;;24.13;13.88;;;;;;;14.45;98.78;100680.13;4941765;28;20098;-85
2021/07/24 04:31:15;;;;;;;26.90;15.38;;;;;;;14.49;98.69;100683.28;4935452;29;20055;-87
2021/07/24 04:33:41;;;;;;;23.67;14.82;;;;;;;14.51;97.94;100678.53;4942209;28;20055;-85
2021/07/24 04:36:07;;;;;;;26.52;15.45;;;;;;;14.57;97.83;100672.38;4933467;28;20499;-85
2021/07/24 04:38:32;;;;;;;23.27;14.23;;;;;;;14.57;98.36;100668.84;4944436;28;20077;-84
2021/07/24 04:40:58;;;;;;;25.90;14.43;;;;;;;14.61;97.93;100670.13;4942440;28;20134;-85
2021/07/24 04:43:23;;;;;;;24.15;14.07;;;;;;;14.61;98.57;100662.84;4940667;28;20047;-88
2021/07/24 04:45:48;;;;;;;23.67;14.13;;;;;;;14.64;97.86;100667.03;4923601;28;20070;-84
2021/07/24 04:48:14;;;;;;;22.75;13.80;;;;;;;14.66;98.29;100665.81;4942533;28;20048;-87
2021/07/24 04:50:47;;;;;;;23.58;14.35;;;;;;;14.69;98.05;100666.47;4942229;28;20039;-85
2021/07/24 04:53:15;;;;;;;24.02;14.05;;;;;;;14.68;98.81;100659.41;4939267;29;20055;-88
2021/07/24 04:55:41;;;;;;;24.30;13.98;;;;;;;14.71;98.06;100656.31;4938717;28;20043;-86
2021/07/24 04:58:08;;;;;;;24.75;14.73;;;;;;;14.73;97.70;100648.81;4941819;28;20070;-85
2021/07/24 05:00:37;;;;;;;24.42;13.70;;;;;;;14.78;97.59;100643.69;4941822;28;20059;-86
2021/07/24 05:03:03;;;;;;;22.95;13.88;;;;;;;14.81;97.57;100645.97;4942606;28;20043;-85
2021/07/24 05:05:29;;;;;;;22.27;14.18;;;;;;;14.82;98.33;100653.06;4930856;29;20051;-84
2021/07/24 05:07:54;;;;;;;20.63;13.98;;;;;;;14.84;97.54;100649.13;4941828;28;20761;-84
2021/07/24 05:10:20;;;;;;;22.75;14.93;;;;;;;14.87;97.53;100639.78;4941803;28;20082;-84
2021/07/24 05:12:45;;;;;;;23.73;14.48;;;;;;;14.85;97.24;100623.81;4943028;28;20049;-86
2021/07/24 05:15:11;;;;;;;22.83;14.00;;;;;;;14.88;97.46;100625.28;4946953;28;20414;-85
2021/07/24 05:17:40;;;;;;;21.27;13.57;;;;;;;14.94;97.89;100626.34;4942592;28;20498;-86
2021/07/24 05:20:07;;;;;;;20.73;12.45;;;;;;;14.98;97.49;100623.03;4946583;28;20054;-87
2021/07/24 05:22:33;;;;;;;21.63;13.77;;;;;;;14.99;97.49;100619.34;4946646;28;20051;-84
2021/07/24 05:24:58;;;;;;;20.55;13.27;;;;;;;15.04;97.91;100608.75;4945274;28;20066;-84
2021/07/24 05:27:23;;;;;;;21.33;12.68;;;;;;;15.11;96.74;100606.94;4946403;28;20051;-84
2021/07/24 05:29:49;;;;;;;20.67;13.18;;;;;;;15.20;96.74;100602.19;4943823;28;20051;-87
2021/07/24 05:32:14;;;;;;;23.00;12.98;;;;;;;15.27;97.30;100592.25;4944960;28;20053;-84
2021/07/24 05:34:40;;;;;;;21.88;12.95;;;;;;;15.33;96.75;100596.88;4946613;28;20051;-86
2021/07/24 05:37:05;;;;;;;21.15;12.32;;;;;;;15.41;97.04;100593.16;4946591;28;20048;-83
2021/07/24 05:39:30;;;;;;;19.65;12.63;;;;;;;15.49;96.34;100593.00;4945834;28;20432;-86
2021/07/24 05:41:56;;;;;;;19.45;11.82;;;;;;;15.55;96.01;100599.47;4944703;28;20142;-91
2021/07/24 05:44:21;;;;;;;19.75;11.55;;;;;;;15.65;95.64;100588.25;4942848;28;20047;-84
2021/07/24 05:46:47;;;;;;;18.45;11.70;;;;;;;15.69;95.38;100586.88;4946315;28;20048;-86
2021/07/24 05:49:13;;;;;;;17.30;11.57;;;;;;;15.76;94.93;100580.41;4939859;29;20058;-85
2021/07/24 05:51:39;;;;;;;18.23;11.50;;;;;;;15.79;94.81;100576.47;4946226;28;20039;-87
2021/07/24 05:54:07;;;;;;;20.27;12.27;;;;;;;15.82;94.66;100570.66;4958563;28;20062;-85
2021/07/24 05:56:35;;;;;;;17.73;11.25;;;;;;;15.89;94.84;100571.53;4945546;28;20133;-86
2021/07/24 05:59:01;;;;;;;17.98;11.27;;;;;;;15.92;94.46;100573.81;4945679;28;20047;-86
2021/07/24 06:01:26;;;;;;;19.00;11.48;;;;;;;15.96;94.55;100576.94;4946167;28;20066;-85
2021/07/24 06:03:51;;;;;;;19.00;11.48;;;;;;;16.00;93.83;100581.75;4943847;28;20055;-85
2021/07/24 06:06:17;;;;;;;18.17;11.32;;;;;;;16.03;94.13;100585.91;4944155;28;20059;-87
2021/07/24 06:08:42;;;;;;;18.13;11.38;;;;;;;16.03;94.70;100594.03;4942092;28;20051;-83
2021/07/24 06:11:08;;;;;;;16.25;10.52;;;;;;;16.10;93.65;100596.75;4946925;28;20163;-84
2021/07/24 06:13:33;;;;;;;21.13;11.15;;;;;;;16.15;93.62;100596.97;4944992;28;20045;-85
2021/07/24 06:15:59;;;;;;;16.90;11.40;;;;;;;16.26;93.65;100601.78;4945915;28;20075;-86
2021/07/24 06:18:25;;;;;;;17.38;10.65;;;;;;;16.38;93.11;100605.53;4944149;28;20209;-88
2021/07/24 06:20:50;;;;;;;16.55;10.43;;;;;;;16.51;92.84;100604.69;4945226;28;20055;-84
2021/07/24 06:23:17;;;;;;;16.02;9.82;;;;;;;16.64;92.17;100598.47;4945452;28;20054;-84
2021/07/24 06:25:46;;;;;;;14.13;9.95;;;;;;;16.73;90.58;100594.50;4942025;28;20130;-84
2021/07/24 06:28:13;;;;;;;14.98;10.07;;;;;;;16.86;90.73;100589.13;4945486;28;20064;-87
2021/07/24 06:30:39;;;;;;;13.82;9.40;;;;;;;16.99;88.65;100582.00;4943645;28;20066;-84
2021/07/24 06:33:05;;;;;;;13.88;9.05;;;;;;;17.08;89.04;100586.97;4945494;28;20050;-85
2021/07/24 06:35:32;;;;;;;12.32;8.45;;;;;;;17.18;89.15;100586.53;4957994;28;20134;-84
2021/07/24 06:37:58;;;;;;;13.60;9.00;;;;;;;17.27;88.88;100587.16;4943472;28;20063;-85
2021/07/24 06:40:23;;;;;;;12.88;9.32;;;;;;;17.34;88.17;100591.47;4945804;28;20047;-91
2021/07/24 06:42:49;;;;;;;14.18;9.40;;;;;;;17.43;87.68;100591.25;4943824;28;20043;-86
2021/07/24 06:45:15;;;;;;;12.77;9.00;;;;;;;17.55;87.43;100581.38;4945674;29;20039;-84
2021/07/24 06:47:40;;;;;;;14.68;9.90;;;;;;;17.65;86.72;100581.78;4941605;28;20047;-85
2021/07/24 06:50:06;;;;;;;13.35;9.35;;;;;;;17.72;85.97;100582.59;4943144;28;20402;-86
2021/07/24 06:52:32;;;;;;;14.30;9.95;;;;;;;17.80;85.89;100587.78;4943337;28;20043;-88
2021/07/24 06:54:57;;;;;;;12.20;9.43;;;;;;;17.93;85.93;100575.19;4941926;28;20495;-84
2021/07/24 06:57:22;;;;;;;11.98;8.45;;;;;;;18.06;85.98;100579.72;4945514;28;20102;-89
2021/07/24 06:59:49;;;;;;;15.43;9.27;;;;;;;18.14;84.06;100577.56;4946141;28;20397;-87
2021/07/24 07:02:14;;;;;;;14.18;9.02;;;;;;;18.29;84.25;100579.97;4941523;28;20261;-85
2021/07/24 07:04:40;;;;;;;11.65;8.57;;;;;;;18.38;83.28;100577.81;4945818;28;20051;-90
2021/07/24 07:07:06;;;;;;;12.73;8.60;;;;;;;18.47;82.90;100580.03;4945467;28;20098;-86
2021/07/24 07:09:33;;;;;;;13.82;8.80;;;;;;;18.57;83.18;100576.00;4945040;28;20055;-84
2021/07/24 07:11:58;;;;;;;13.65;8.40;;;;;;;18.64;82.81;100582.19;4943806;28;20150;-88
2021/07/24 07:14:24;;;;;;;12.70;8.10;;;;;;;18.67;81.85;100574.44;4944523;28;20495;-86
2021/07/24 07:16:50;;;;;;;11.52;8.68;;;;;;;18.78;81.91;100572.88;4945011;28;20126;-88
2021/07/24 07:19:20;;;;;;;13.68;8.18;;;;;;;18.84;81.62;100566.56;4944808;28;20059;-85
2021/07/24 07:21:46;;;;;;;12.98;8.98;;;;;;;18.90;81.95;100568.41;4941985;28;20047;-85
2021/07/24 07:24:11;;;;;;;11.38;8.23;;;;;;;19.01;81.02;100564.09;4945936;28;20054;-85
2021/07/24 07:26:39;;;;;;;12.40;8.60;;;;;;;19.08;80.82;100558.59;4944963;28;20395;-86
2021/07/24 07:29:05;;;;;;;12.38;8.50;;;;;;;19.20;81.73;100569.56;4944547;28;20102;-85
2021/07/24 07:31:38;;;;;;;13.35;9.05;;;;;;;19.25;80.41;100558.81;4947198;28;20055;-84
2021/07/24 07:34:05;;;;;;;12.02;8.05;;;;;;;19.34;80.58;100538.41;4944708;28;20059;-85
2021/07/24 07:36:32;;;;;;;11.68;8.38;;;;;;;19.42;80.04;100548.13;4942880;28;20060;-83
2021/07/24 07:38:57;;;;;;;12.27;8.68;;;;;;;19.52;80.04;100552.00;4943839;28;20055;-86
2021/07/24 07:41:24;;;;;;;13.25;8.82;;;;;;;19.59;78.98;100550.03;4944084;28;20055;-89
2021/07/24 07:43:50;;;;;;;12.65;8.25;;;;;;;19.68;79.15;100547.00;4942576;28;20565;-86
2021/07/24 07:46:16;;;;;;;11.65;8.20;;;;;;;19.78;80.11;100547.28;4944188;28;20050;-86
2021/07/24 07:48:42;;;;;;;13.40;8.45;;;;;;;19.86;79.75;100536.06;4944851;28;20047;-86
2021/07/24 07:51:09;;;;;;;11.98;7.85;;;;;;;19.97;79.72;100540.72;4942468;28;20043;-90
2021/07/24 07:53:36;;;;;;;10.90;7.95;;;;;;;20.03;78.72;100542.50;4943214;28;20071;-84
2021/07/24 07:56:02;;;;;;;12.50;8.50;;;;;;;20.11;78.04;100537.78;4952805;28;20503;-86
2021/07/24 07:58:28;;;;;;;10.73;8.15;;;;;;;20.20;78.40;100530.97;4954222;28;20047;-83
2021/07/24 08:00:54;;;;;;;12.68;8.40;;;;;;;20.26;77.67;100527.28;4944359;28;20073;-84
2021/07/24 08:03:24;;;;;;;16.10;9.13;;;;;;;20.33;78.54;100524.44;4940848;28;20131;-84
2021/07/24 08:05:49;;;;;;;17.05;8.63;;;;;;;20.39;76.85;100516.16;4948650;28;20043;-85
2021/07/24 08:08:16;;;;;;;11.90;8.27;;;;;;;20.48;76.78;100508.44;4945590;28;20502;-84
2021/07/24 08:10:42;;;;;;;10.63;7.90;;;;;;;20.50;76.99;100509.88;4944621;28;20070;-86
2021/07/24 08:13:14;;;;;;;12.23;8.90;;;;;;;20.56;76.22;100493.69;4946084;28;20387;-85
2021/07/24 08:15:41;;;;;;;12.77;9.27;;;;;;;20.57;76.19;100488.00;4943872;28;20074;-88
2021/07/24 08:18:06;;;;;;;12.18;8.32;;;;;;;20.64;75.77;100482.44;4942870;28;20051;-86
2021/07/24 08:20:32;;;;;;;13.82;8.82;;;;;;;20.73;76.23;100476.34;4941400;28;20044;-85
2021/07/24 08:22:57;;;;;;;12.80;8.38;;;;;;;20.91;75.66;100461.75;4943344;28;20114;-85
2021/07/24 08:25:22;;;;;;;12.43;8.18;;;;;;;21.00;74.54;100453.19;4942560;28;20078;-90
2021/07/24 08:27:48;;;;;;;11.68;8.18;;;;;;;21.12;75.56;100454.81;4941839;28;20043;-85
2021/07/24 08:30:13;;;;;;;13.20;8.95;;;;;;;21.29;74.78;100456.75;4943433;28;20043;-85
2021/07/24 08:32:39;;;;;;;15.23;9.02;;;;;;;21.44;74.27;100445.38;4944394;28;20054;-85
2021/07/24 08:35:05;;;;;;;15.07;9.88;;;;;;;21.59;73.62;100442.91;4943312;28;20051;-85
2021/07/24 08:37:34;;;;;;;21.50;9.90;;;;;;;21.74;73.36;100432.25;4942005;28;20059;-85
2021/07/24 08:39:59;;;;;;;14.60;9.90;;;;;;;21.85;71.53;100427.78;4940629;28;20055;-88
2021/07/24 08:42:29;;;;;;;13.60;9.23;;;;;;;21.84;71.52;100426.97;4940594;28;20053;-87
2021/07/24 08:44:55;;;;;;;13.77;10.23;;;;;;;21.91;70.95;100431.44;4943555;28;20054;-87
2021/07/24 08:47:20;;;;;;;15.90;10.10;;;;;;;22.02;71.25;100428.63;4940149;28;20683;-86
2021/07/24 08:49:46;;;;;;;15.90;10.45;;;;;;;22.12;71.81;100427.94;4942453;28;20105;-86
2021/07/24 08:52:17;;;;;;;14.50;9.65;;;;;;;22.24;71.68;100425.16;4940636;28;20047;-87
2021/07/24 08:54:42;;;;;;;12.68;9.60;;;;;;;22.36;72.47;100423.16;4942758;28;20064;-85
2021/07/24 08:57:08;;;;;;;11.65;9.52;;;;;;;22.49;71.04;100421.97;4944316;28;20059;-90
2021/07/24 08:59:36;;;;;;;14.00;9.57;;;;;;;22.56;71.56;100417.16;4942594;28;20093;-86
2021/07/24 09:02:03;;;;;;;11.63;8.60;;;;;;;22.69;70.79;100408.56;4942437;28;20051;-88
2021/07/24 09:04:30;;;;;;;15.50;9.80;;;;;;;22.77;70.54;100410.03;4941687;28;20047;-85
2021/07/24 09:07:03;;;;;;;12.77;8.90;;;;;;;22.83;70.82;100406.28;4940754;28;20134;-86
2021/07/24 09:09:28;;;;;;;14.25;10.18;;;;;;;22.93;69.04;100400.09;4943347;28;20114;-86
2021/07/24 09:11:54;;;;;;;11.82;8.55;;;;;;;23.08;70.66;100397.59;4942726;28;20059;-86
2021/07/24 09:14:20;;;;;;;14.88;9.10;;;;;;;23.22;70.19;100402.63;4932035;28;20087;-93
2021/07/24 09:16:46;;;;;;;14.63;10.00;;;;;;;23.33;68.50;100401.66;4942475;28;20149;-88
2021/07/24 09:19:13;;;;;;;13.02;8.82;;;;;;;23.48;70.30;100409.19;4942281;28;20082;-87
2021/07/24 09:21:39;;;;;;;13.63;9.00;;;;;;;23.58;68.32;100412.03;4941826;28;20043;-87
2021/07/24 09:24:20;;;;;;;12.13;9.10;;;;;;;23.67;68.02;100412.41;4934817;28;20138;-86
2021/07/24 09:26:46;;;;;;;12.93;9.40;;;;;;;23.77;66.92;100409.78;4939595;28;20172;-85
2021/07/24 09:29:14;;;;;;;10.75;8.82;;;;;;;23.90;68.66;100414.81;4942137;28;20047;-87
2021/07/24 09:31:41;;;;;;;12.83;10.03;;;;;;;23.99;67.26;100413.22;4942593;28;20070;-88
2021/07/24 09:34:13;;;;;;;13.68;10.13;;;;;;;24.06;65.59;100411.09;4942163;28;20289;-85
2021/07/24 09:36:39;;;;;;;12.95;9.18;;;;;;;24.07;65.73;100417.41;4940863;28;20512;-87
2021/07/24 09:39:16;;;;;;;12.70;9.10;;;;;;;24.16;65.81;100420.50;4942266;28;20138;-86
2021/07/24 09:41:45;;;;;;;17.23;9.27;;;;;;;24.28;66.51;100412.88;4942097;28;20055;-86
2021/07/24 09:44:26;;;;;;;11.57;8.15;;;;;;;24.43;66.85;100420.44;4941557;28;20051;-86
2021/07/24 09:46:55;;;;;;;15.35;9.75;;;;;;;24.61;66.38;100419.16;4941341;28;20055;-87
2021/07/24 09:49:34;;;;;;;15.43;9.57;;;;;;;24.71;64.97;100428.25;4941156;28;20078;-86
2021/07/24 09:52:17;;;;;;;12.07;9.07;;;;;;;24.75;64.64;100421.16;4940137;28;20055;-86
2021/07/24 09:54:42;;;;;;;15.50;9.68;;;;;;;24.81;64.25;100419.25;4942471;28;20043;-86
2021/07/24 09:57:08;;;;;;;14.50;9.25;;;;;;;24.89;64.79;100429.72;4941868;28;20495;-85
2021/07/24 09:59:35;;;;;;;15.13;10.00;;;;;;;24.92;64.13;100422.88;4940628;28;20074;-91
2021/07/24 10:02:02;;;;;;;13.45;9.32;;;;;;;24.96;63.77;100421.22;4941471;28;20059;-85
2021/07/24 10:04:33;;;;;;;13.35;9.25;;;;;;;24.95;64.10;100431.38;4945581;28;20581;-85
2021/07/24 10:06:59;;;;;;;11.93;9.45;;;;;;;24.99;63.56;100427.00;4954753;28;20059;-87
2021/07/24 10:09:33;;;;;;;14.00;9.18;;;;;;;25.10;65.48;100429.78;4945257;28;20098;-88
2021/07/24 10:12:16;;;;;;;14.00;9.13;;;;;;;25.21;64.79;100420.53;4941456;28;20519;-85
2021/07/24 10:14:42;;;;;;;13.88;9.48;;;;;;;25.38;64.23;100421.09;4947270;28;20088;-85
2021/07/24 10:17:08;;;;;;;12.43;8.25;;;;;;;25.49;64.44;100410.13;4944890;28;20051;-87
2021/07/24 10:19:34;;;;;;;13.10;9.02;;;;;;;25.59;65.11;100418.38;4945423;28;20085;-89
2021/07/24 10:22:01;;;;;;;12.82;9.32;;;;;;;25.57;64.40;100415.09;4942801;28;20083;-86
2021/07/24 10:24:27;;;;;;;12.38;9.02;;;;;;;25.58;61.66;100414.81;4944825;28;20387;-85
2021/07/24 10:27:05;;;;;;;14.63;9.25;;;;;;;25.63;63.64;100414.81;4945641;28;20398;-87
2021/07/24 10:29:44;;;;;;;12.88;8.88;;;;;;;25.73;62.89;100414.00;4945528;28;20046;-90
2021/07/24 10:32:11;;;;;;;12.38;9.60;;;;;;;25.75;63.47;100408.22;4942595;28;20321;-87
2021/07/24 10:34:40;;;;;;;11.30;8.43;;;;;;;25.81;62.30;100402.47;4952032;28;20502;-87
2021/07/24 10:37:35;;;;;;;12.55;8.98;;;;;;;25.84;62.17;100401.94;4944310;28;20055;-86
2021/07/24 10:40:16;;;;;;;11.38;8.20;;;;;;;25.85;61.84;100409.09;4958327;28;21121;-85
2021/07/24 10:42:47;;;;;;;12.77;9.20;;;;;;;25.80;61.89;100398.06;4942500;28;20524;-87
2021/07/24 10:45:31;;;;;;;14.13;10.13;;;;;;;25.74;61.54;100396.41;4959019;28;20043;-86
2021/07/24 10:48:15;;;;;;;15.07;9.23;;;;;;;25.75;62.40;100395.31;4941859;28;20521;-85
2021/07/24 10:51:12;;;;;;;12.75;8.93;;;;;;;25.80;59.90;100394.50;4945861;28;20062;-86
2021/07/24 10:54:02;;;;;;;12.38;9.50;;;;;;;25.79;62.89;100393.66;4942511;28;20071;-86
2021/07/24 10:56:38;;;;;;;10.32;8.52;;;;;;;25.79;60.85;100395.59;4945070;28;20109;-88
2021/07/24 10:59:24;;;;;;;10.40;8.43;;;;;;;25.74;60.98;100387.34;4945351;28;20426;-86
2021/07/24 11:01:50;;;;;;;12.07;8.88;;;;;;;25.70;62.35;100384.34;4945179;28;20157;-85
2021/07/24 11:04:46;;;;;;;11.52;9.45;;;;;;;25.72;61.48;100381.28;4944357;28;20047;-87
2021/07/24 11:07:19;;;;;;;13.20;9.32;;;;;;;25.76;62.36;100385.97;4941611;28;20051;-85
2021/07/24 11:09:46;;;;;;;11.52;9.48;;;;;;;25.77;62.43;100393.09;4944083;28;20055;-85
2021/07/24 11:12:12;;;;;;;13.82;9.57;;;;;;;25.80;62.35;100389.00;4943298;28;20414;-86
2021/07/24 11:14:37;;;;;;;16.65;9.13;;;;;;;25.83;63.24;100378.28;4944142;28;20137;-87
2021/07/24 11:17:06;;;;;;;14.65;9.43;;;;;;;25.83;62.46;100381.03;4940388;28;20513;-87